sensor_id;sensor_type;location;lat;lon;timestamp;P1;durP1;ratioP1;P2;durP2;ratioP2
41903;SDS011;27586;51.124;4.182;2023-05-24T00:02:18;7.63;;;3.00;;
41903;SDS011;27586;51.124;4.182;2023-05-24T00:04:44;9.10;;;3.45;;
41903;SDS011;27586;51.124;4.182;2023-05-24T00:07:10;8.25;;;3.22;;
41903;SDS011;27586;51.124;4.182;2023-05-24T00:09:35;10.48;;;3.05;;
41903;SDS011;27586;51.124;4.182;2023-05-24T00:12:01;14.73;;;3.83;;
41903;SDS011;27586;51.124;4.182;2023-05-24T00:14:27;8.00;;;3.53;;
41903;SDS011;27586;51.124;4.182;2023-05-24T00:16:53;8.30;;;3.25;;
41903;SDS011;27586;51.124;4.182;2023-05-24T00:19:18;8.57;;;3.25;;
41903;SDS011;27586;51.124;4.182;2023-05-24T00:21:47;9.80;;;2.75;;
41903;SDS011;27586;51.124;4.182;2023-05-24T00:24:13;7.72;;;3.10;;
41903;SDS011;27586;51.124;4.182;2023-05-24T00:26:38;7.45;;;3.22;;
41903;SDS011;27586;51.124;4.182;2023-05-24T00:29:04;7.43;;;3.30;;
41903;SDS011;27586;51.124;4.182;2023-05-24T00:31:30;8.82;;;3.15;;
41903;SDS011;27586;51.124;4.182;2023-05-24T00:33:56;7.22;;;3.20;;
41903;SDS011;27586;51.124;4.182;2023-05-24T00:36:21;6.53;;;3.00;;
41903;SDS011;27586;51.124;4.182;2023-05-24T00:38:47;7.90;;;2.88;;
41903;SDS011;27586;51.124;4.182;2023-05-24T00:41:13;9.73;;;3.40;;
41903;SDS011;27586;51.124;4.182;2023-05-24T00:43:39;6.90;;;2.80;;
41903;SDS011;27586;51.124;4.182;2023-05-24T00:46:17;8.90;;;3.25;;
41903;SDS011;27586;51.124;4.182;2023-05-24T00:48:46;8.23;;;3.13;;
41903;SDS011;27586;51.124;4.182;2023-05-24T00:51:13;8.68;;;3.50;;
41903;SDS011;27586;51.124;4.182;2023-05-24T00:53:40;7.13;;;3.10;;
41903;SDS011;27586;51.124;4.182;2023-05-24T00:56:08;7.03;;;3.30;;
41903;SDS011;27586;51.124;4.182;2023-05-24T00:58:34;8.93;;;3.28;;
41903;SDS011;27586;51.124;4.182;2023-05-24T01:01:00;7.53;;;3.80;;
41903;SDS011;27586;51.124;4.182;2023-05-24T01:03:26;10.77;;;3.97;;
41903;SDS011;27586;51.124;4.182;2023-05-24T01:05:57;10.77;;;3.63;;
41903;SDS011;27586;51.124;4.182;2023-05-24T01:16:53;8.63;;;3.50;;
41903;SDS011;27586;51.124;4.182;2023-05-24T01:22:00;8.65;;;3.15;;
41903;SDS011;27586;51.124;4.182;2023-05-24T01:27:53;7.85;;;3.20;;
41903;SDS011;27586;51.124;4.182;2023-05-24T01:30:19;8.05;;;3.17;;
41903;SDS011;27586;51.124;4.182;2023-05-24T01:32:45;8.15;;;3.22;;
41903;SDS011;27586;51.124;4.182;2023-05-24T01:35:11;8.65;;;3.60;;
41903;SDS011;27586;51.124;4.182;2023-05-24T01:37:37;8.88;;;3.78;;
41903;SDS011;27586;51.124;4.182;2023-05-24T01:40:03;7.43;;;3.72;;
41903;SDS011;27586;51.124;4.182;2023-05-24T01:47:28;8.15;;;3.90;;
41903;SDS011;27586;51.124;4.182;2023-05-24T01:50:24;12.10;;;4.35;;
41903;SDS011;27586;51.124;4.182;2023-05-24T01:52:54;10.82;;;4.05;;
41903;SDS011;27586;51.124;4.182;2023-05-24T01:55:24;7.70;;;3.75;;
41903;SDS011;27586;51.124;4.182;2023-05-24T01:57:52;8.60;;;3.70;;
41903;SDS011;27586;51.124;4.182;2023-05-24T02:00:23;8.68;;;4.00;;
41903;SDS011;27586;51.124;4.182;2023-05-24T02:02:50;7.03;;;3.80;;
41903;SDS011;27586;51.124;4.182;2023-05-24T02:05:16;8.98;;;3.80;;
41903;SDS011;27586;51.124;4.182;2023-05-24T02:07:42;7.00;;;3.83;;
41903;SDS011;27586;51.124;4.182;2023-05-24T02:10:08;10.77;;;3.88;;
41903;SDS011;27586;51.124;4.182;2023-05-24T02:12:33;7.47;;;3.72;;
41903;SDS011;27586;51.124;4.182;2023-05-24T02:14:59;12.35;;;4.32;;
41903;SDS011;27586;51.124;4.182;2023-05-24T02:17:25;8.80;;;3.58;;
41903;SDS011;27586;51.124;4.182;2023-05-24T02:19:51;12.30;;;3.85;;
41903;SDS011;27586;51.124;4.182;2023-05-24T02:22:17;12.90;;;4.22;;
41903;SDS011;27586;51.124;4.182;2023-05-24T02:24:46;8.30;;;3.65;;
41903;SDS011;27586;51.124;4.182;2023-05-24T02:27:12;10.57;;;3.83;;
41903;SDS011;27586;51.124;4.182;2023-05-24T02:29:37;9.40;;;3.85;;
41903;SDS011;27586;51.124;4.182;2023-05-24T02:32:05;12.60;;;4.28;;
41903;SDS011;27586;51.124;4.182;2023-05-24T02:34:31;12.02;;;4.05;;
41903;SDS011;27586;51.124;4.182;2023-05-24T02:36:57;8.77;;;3.97;;
41903;SDS011;27586;51.124;4.182;2023-05-24T02:39:22;8.13;;;3.90;;
41903;SDS011;27586;51.124;4.182;2023-05-24T02:41:48;8.82;;;4.32;;
41903;SDS011;27586;51.124;4.182;2023-05-24T02:44:14;9.30;;;3.90;;
41903;SDS011;27586;51.124;4.182;2023-05-24T02:46:39;7.38;;;3.67;;
41903;SDS011;27586;51.124;4.182;2023-05-24T02:49:05;8.05;;;3.63;;
41903;SDS011;27586;51.124;4.182;2023-05-24T02:51:31;7.50;;;3.63;;
41903;SDS011;27586;51.124;4.182;2023-05-24T02:53:56;9.00;;;3.38;;
41903;SDS011;27586;51.124;4.182;2023-05-24T02:56:22;8.25;;;3.45;;
41903;SDS011;27586;51.124;4.182;2023-05-24T02:58:50;8.63;;;3.83;;
41903;SDS011;27586;51.124;4.182;2023-05-24T03:01:18;7.47;;;3.80;;
41903;SDS011;27586;51.124;4.182;2023-05-24T03:03:45;9.80;;;3.95;;
41903;SDS011;27586;51.124;4.182;2023-05-24T03:06:10;7.43;;;3.78;;
41903;SDS011;27586;51.124;4.182;2023-05-24T03:08:38;8.13;;;3.53;;
41903;SDS011;27586;51.124;4.182;2023-05-24T03:11:04;8.60;;;3.58;;
41903;SDS011;27586;51.124;4.182;2023-05-24T03:13:30;7.47;;;3.50;;
41903;SDS011;27586;51.124;4.182;2023-05-24T03:15:56;9.77;;;3.80;;
41903;SDS011;27586;51.124;4.182;2023-05-24T03:18:22;5.53;;;3.67;;
41903;SDS011;27586;51.124;4.182;2023-05-24T03:20:48;8.02;;;3.80;;
41903;SDS011;27586;51.124;4.182;2023-05-24T03:23:13;9.00;;;4.10;;
41903;SDS011;27586;51.124;4.182;2023-05-24T03:25:39;9.07;;;4.30;;
41903;SDS011;27586;51.124;4.182;2023-05-24T03:28:05;10.63;;;4.38;;
41903;SDS011;27586;51.124;4.182;2023-05-24T03:30:31;6.72;;;3.95;;
41903;SDS011;27586;51.124;4.182;2023-05-24T03:32:57;6.93;;;4.13;;
41903;SDS011;27586;51.124;4.182;2023-05-24T03:35:23;9.15;;;4.25;;
41903;SDS011;27586;51.124;4.182;2023-05-24T03:37:48;7.93;;;3.72;;
41903;SDS011;27586;51.124;4.182;2023-05-24T03:40:14;14.13;;;4.50;;
41903;SDS011;27586;51.124;4.182;2023-05-24T03:42:40;10.48;;;5.07;;
41903;SDS011;27586;51.124;4.182;2023-05-24T03:45:06;9.45;;;4.32;;
41903;SDS011;27586;51.124;4.182;2023-05-24T03:47:32;9.93;;;4.18;;
41903;SDS011;27586;51.124;4.182;2023-05-24T03:49:57;10.32;;;4.18;;
41903;SDS011;27586;51.124;4.182;2023-05-24T03:52:23;6.55;;;4.00;;
41903;SDS011;27586;51.124;4.182;2023-05-24T03:54:49;7.53;;;3.97;;
41903;SDS011;27586;51.124;4.182;2023-05-24T03:57:15;9.98;;;4.22;;
41903;SDS011;27586;51.124;4.182;2023-05-24T03:59:41;10.40;;;4.35;;
41903;SDS011;27586;51.124;4.182;2023-05-24T04:02:07;9.98;;;4.70;;
41903;SDS011;27586;51.124;4.182;2023-05-24T04:04:32;10.70;;;4.30;;
41903;SDS011;27586;51.124;4.182;2023-05-24T04:06:58;8.77;;;4.05;;
41903;SDS011;27586;51.124;4.182;2023-05-24T04:09:24;9.80;;;4.13;;
41903;SDS011;27586;51.124;4.182;2023-05-24T04:11:49;8.65;;;3.78;;
41903;SDS011;27586;51.124;4.182;2023-05-24T04:14:15;10.05;;;4.75;;
41903;SDS011;27586;51.124;4.182;2023-05-24T04:16:41;7.72;;;4.30;;
41903;SDS011;27586;51.124;4.182;2023-05-24T04:19:09;9.60;;;4.20;;
41903;SDS011;27586;51.124;4.182;2023-05-24T04:21:35;10.00;;;3.97;;
41903;SDS011;27586;51.124;4.182;2023-05-24T04:24:02;9.70;;;4.20;;
41903;SDS011;27586;51.124;4.182;2023-05-24T04:26:28;9.60;;;4.55;;
41903;SDS011;27586;51.124;4.182;2023-05-24T04:28:55;9.90;;;4.63;;
41903;SDS011;27586;51.124;4.182;2023-05-24T04:31:21;7.63;;;3.53;;
41903;SDS011;27586;51.124;4.182;2023-05-24T04:33:47;10.90;;;4.53;;
41903;SDS011;27586;51.124;4.182;2023-05-24T04:36:14;8.68;;;4.50;;
41903;SDS011;27586;51.124;4.182;2023-05-24T04:38:40;10.65;;;4.40;;
41903;SDS011;27586;51.124;4.182;2023-05-24T04:41:05;8.65;;;4.57;;
41903;SDS011;27586;51.124;4.182;2023-05-24T04:43:31;11.55;;;4.03;;
41903;SDS011;27586;51.124;4.182;2023-05-24T04:45:58;9.05;;;4.13;;
41903;SDS011;27586;51.124;4.182;2023-05-24T04:48:24;12.00;;;5.15;;
41903;SDS011;27586;51.124;4.182;2023-05-24T04:50:53;12.30;;;5.00;;
41903;SDS011;27586;51.124;4.182;2023-05-24T04:53:20;9.45;;;4.38;;
41903;SDS011;27586;51.124;4.182;2023-05-24T04:55:47;9.77;;;4.75;;
41903;SDS011;27586;51.124;4.182;2023-05-24T04:58:13;12.63;;;4.80;;
41903;SDS011;27586;51.124;4.182;2023-05-24T05:00:40;13.10;;;4.80;;
41903;SDS011;27586;51.124;4.182;2023-05-24T05:03:06;12.60;;;5.43;;
41903;SDS011;27586;51.124;4.182;2023-05-24T05:05:32;11.43;;;5.18;;
41903;SDS011;27586;51.124;4.182;2023-05-24T05:07:58;12.15;;;5.18;;
41903;SDS011;27586;51.124;4.182;2023-05-24T05:10:24;12.13;;;4.40;;
41903;SDS011;27586;51.124;4.182;2023-05-24T05:12:50;10.07;;;5.15;;
41903;SDS011;27586;51.124;4.182;2023-05-24T05:15:16;11.13;;;5.43;;
41903;SDS011;27586;51.124;4.182;2023-05-24T05:17:41;12.02;;;5.55;;
41903;SDS011;27586;51.124;4.182;2023-05-24T05:20:07;10.35;;;5.40;;
41903;SDS011;27586;51.124;4.182;2023-05-24T05:22:33;10.27;;;5.00;;
41903;SDS011;27586;51.124;4.182;2023-05-24T05:24:59;13.60;;;5.35;;
41903;SDS011;27586;51.124;4.182;2023-05-24T05:27:25;10.50;;;4.90;;
41903;SDS011;27586;51.124;4.182;2023-05-24T05:29:51;11.45;;;5.45;;
41903;SDS011;27586;51.124;4.182;2023-05-24T05:32:16;16.65;;;5.55;;
41903;SDS011;27586;51.124;4.182;2023-05-24T05:34:42;12.00;;;4.78;;
41903;SDS011;27586;51.124;4.182;2023-05-24T05:37:08;13.70;;;5.50;;
41903;SDS011;27586;51.124;4.182;2023-05-24T05:39:34;11.95;;;5.38;;
41903;SDS011;27586;51.124;4.182;2023-05-24T05:42:00;16.75;;;5.45;;
41903;SDS011;27586;51.124;4.182;2023-05-24T05:44:26;11.70;;;4.47;;
41903;SDS011;27586;51.124;4.182;2023-05-24T05:46:52;12.93;;;5.30;;
41903;SDS011;27586;51.124;4.182;2023-05-24T05:49:18;12.43;;;5.05;;
41903;SDS011;27586;51.124;4.182;2023-05-24T05:51:44;11.90;;;4.57;;
41903;SDS011;27586;51.124;4.182;2023-05-24T05:54:11;14.90;;;5.18;;
41903;SDS011;27586;51.124;4.182;2023-05-24T05:56:42;13.93;;;5.47;;
41903;SDS011;27586;51.124;4.182;2023-05-24T05:59:12;11.70;;;5.25;;
41903;SDS011;27586;51.124;4.182;2023-05-24T06:01:42;12.52;;;4.93;;
41903;SDS011;27586;51.124;4.182;2023-05-24T06:04:11;11.43;;;4.97;;
41903;SDS011;27586;51.124;4.182;2023-05-24T06:06:36;11.65;;;4.72;;
41903;SDS011;27586;51.124;4.182;2023-05-24T06:09:02;18.33;;;5.15;;
41903;SDS011;27586;51.124;4.182;2023-05-24T06:11:28;17.88;;;5.55;;
41903;SDS011;27586;51.124;4.182;2023-05-24T06:13:54;14.35;;;5.03;;
41903;SDS011;27586;51.124;4.182;2023-05-24T06:16:19;10.05;;;4.68;;
41903;SDS011;27586;51.124;4.182;2023-05-24T06:18:45;12.57;;;4.35;;
41903;SDS011;27586;51.124;4.182;2023-05-24T06:21:12;14.02;;;4.60;;
41903;SDS011;27586;51.124;4.182;2023-05-24T06:23:40;20.02;;;5.00;;
41903;SDS011;27586;51.124;4.182;2023-05-24T06:26:06;13.35;;;4.63;;
41903;SDS011;27586;51.124;4.182;2023-05-24T06:28:33;13.88;;;5.00;;
41903;SDS011;27586;51.124;4.182;2023-05-24T06:31:00;11.73;;;5.05;;
41903;SDS011;27586;51.124;4.182;2023-05-24T06:33:25;13.73;;;4.70;;
41903;SDS011;27586;51.124;4.182;2023-05-24T06:35:51;13.15;;;4.50;;
41903;SDS011;27586;51.124;4.182;2023-05-24T06:38:17;15.23;;;4.13;;
41903;SDS011;27586;51.124;4.182;2023-05-24T06:40:43;12.10;;;4.55;;
41903;SDS011;27586;51.124;4.182;2023-05-24T06:43:08;17.08;;;4.63;;
41903;SDS011;27586;51.124;4.182;2023-05-24T06:45:34;16.98;;;4.63;;
41903;SDS011;27586;51.124;4.182;2023-05-24T06:48:01;11.65;;;4.55;;
41903;SDS011;27586;51.124;4.182;2023-05-24T06:50:27;14.18;;;4.38;;
41903;SDS011;27586;51.124;4.182;2023-05-24T06:52:52;14.27;;;4.78;;
41903;SDS011;27586;51.124;4.182;2023-05-24T06:55:18;12.88;;;5.18;;
41903;SDS011;27586;51.124;4.182;2023-05-24T06:57:44;14.13;;;5.22;;
41903;SDS011;27586;51.124;4.182;2023-05-24T07:00:10;14.75;;;5.38;;
41903;SDS011;27586;51.124;4.182;2023-05-24T07:02:39;15.10;;;4.50;;
41903;SDS011;27586;51.124;4.182;2023-05-24T07:05:05;13.48;;;4.88;;
41903;SDS011;27586;51.124;4.182;2023-05-24T07:07:42;10.90;;;4.60;;
41903;SDS011;27586;51.124;4.182;2023-05-24T07:10:08;16.00;;;4.47;;
41903;SDS011;27586;51.124;4.182;2023-05-24T07:12:35;9.65;;;4.20;;
41903;SDS011;27586;51.124;4.182;2023-05-24T07:15:05;14.05;;;4.75;;
41903;SDS011;27586;51.124;4.182;2023-05-24T07:17:31;12.45;;;4.80;;
41903;SDS011;27586;51.124;4.182;2023-05-24T07:19:57;10.70;;;4.45;;
41903;SDS011;27586;51.124;4.182;2023-05-24T07:22:24;10.00;;;4.55;;
41903;SDS011;27586;51.124;4.182;2023-05-24T07:24:52;8.57;;;4.40;;
41903;SDS011;27586;51.124;4.182;2023-05-24T07:27:18;10.02;;;4.20;;
41903;SDS011;27586;51.124;4.182;2023-05-24T07:29:44;12.73;;;4.13;;
41903;SDS011;27586;51.124;4.182;2023-05-24T07:32:10;13.13;;;5.25;;
41903;SDS011;27586;51.124;4.182;2023-05-24T07:34:36;12.32;;;4.50;;
41903;SDS011;27586;51.124;4.182;2023-05-24T07:37:03;13.50;;;4.88;;
41903;SDS011;27586;51.124;4.182;2023-05-24T07:39:29;11.63;;;4.32;;
41903;SDS011;27586;51.124;4.182;2023-05-24T07:41:55;13.23;;;4.72;;
41903;SDS011;27586;51.124;4.182;2023-05-24T07:44:20;10.85;;;4.53;;
41903;SDS011;27586;51.124;4.182;2023-05-24T07:46:47;11.63;;;4.00;;
41903;SDS011;27586;51.124;4.182;2023-05-24T07:49:13;15.52;;;4.28;;
41903;SDS011;27586;51.124;4.182;2023-05-24T07:51:39;8.68;;;3.75;;
41903;SDS011;27586;51.124;4.182;2023-05-24T07:54:04;11.70;;;3.88;;
41903;SDS011;27586;51.124;4.182;2023-05-24T07:56:30;9.40;;;3.95;;
41903;SDS011;27586;51.124;4.182;2023-05-24T07:58:56;9.70;;;3.83;;
41903;SDS011;27586;51.124;4.182;2023-05-24T08:01:27;12.20;;;4.10;;
41903;SDS011;27586;51.124;4.182;2023-05-24T08:03:54;11.07;;;4.05;;
41903;SDS011;27586;51.124;4.182;2023-05-24T08:06:20;12.02;;;4.05;;
41903;SDS011;27586;51.124;4.182;2023-05-24T08:08:46;7.43;;;3.42;;
41903;SDS011;27586;51.124;4.182;2023-05-24T08:11:12;10.88;;;4.30;;
41903;SDS011;27586;51.124;4.182;2023-05-24T08:13:38;12.65;;;3.90;;
41903;SDS011;27586;51.124;4.182;2023-05-24T08:16:03;9.88;;;4.38;;
41903;SDS011;27586;51.124;4.182;2023-05-24T08:18:29;11.82;;;4.05;;
41903;SDS011;27586;51.124;4.182;2023-05-24T08:20:55;12.57;;;4.32;;
41903;SDS011;27586;51.124;4.182;2023-05-24T08:23:21;10.02;;;4.57;;
41903;SDS011;27586;51.124;4.182;2023-05-24T08:25:47;10.93;;;3.80;;
41903;SDS011;27586;51.124;4.182;2023-05-24T08:28:12;10.70;;;4.00;;
41903;SDS011;27586;51.124;4.182;2023-05-24T08:30:38;9.93;;;3.70;;
41903;SDS011;27586;51.124;4.182;2023-05-24T08:33:04;10.05;;;4.03;;
41903;SDS011;27586;51.124;4.182;2023-05-24T08:35:29;9.85;;;3.30;;
41903;SDS011;27586;51.124;4.182;2023-05-24T08:37:55;13.13;;;4.22;;
41903;SDS011;27586;51.124;4.182;2023-05-24T08:40:21;8.60;;;3.10;;
41903;SDS011;27586;51.124;4.182;2023-05-24T08:42:48;8.30;;;3.05;;
41903;SDS011;27586;51.124;4.182;2023-05-24T08:45:14;7.30;;;3.60;;
41903;SDS011;27586;51.124;4.182;2023-05-24T08:47:42;7.65;;;3.67;;
41903;SDS011;27586;51.124;4.182;2023-05-24T08:50:08;10.38;;;3.78;;
41903;SDS011;27586;51.124;4.182;2023-05-24T08:52:35;8.25;;;3.53;;
41903;SDS011;27586;51.124;4.182;2023-05-24T08:55:01;8.43;;;3.58;;
41903;SDS011;27586;51.124;4.182;2023-05-24T08:57:30;12.13;;;3.47;;
41903;SDS011;27586;51.124;4.182;2023-05-24T08:59:56;8.07;;;3.15;;
41903;SDS011;27586;51.124;4.182;2023-05-24T09:02:23;7.63;;;3.25;;
41903;SDS011;27586;51.124;4.182;2023-05-24T09:04:49;10.15;;;3.90;;
41903;SDS011;27586;51.124;4.182;2023-05-24T09:07:17;7.03;;;3.10;;
41903;SDS011;27586;51.124;4.182;2023-05-24T09:09:57;9.63;;;3.10;;
41903;SDS011;27586;51.124;4.182;2023-05-24T09:12:29;8.52;;;3.15;;
41903;SDS011;27586;51.124;4.182;2023-05-24T09:15:00;7.95;;;3.20;;
41903;SDS011;27586;51.124;4.182;2023-05-24T09:17:27;8.13;;;3.20;;
41903;SDS011;27586;51.124;4.182;2023-05-24T09:19:56;11.45;;;3.50;;
41903;SDS011;27586;51.124;4.182;2023-05-24T09:22:23;11.85;;;4.15;;
41903;SDS011;27586;51.124;4.182;2023-05-24T09:24:51;7.53;;;3.22;;
41903;SDS011;27586;51.124;4.182;2023-05-24T09:27:18;7.60;;;3.20;;
41903;SDS011;27586;51.124;4.182;2023-05-24T09:29:47;12.07;;;3.88;;
41903;SDS011;27586;51.124;4.182;2023-05-24T09:32:14;7.75;;;3.33;;
41903;SDS011;27586;51.124;4.182;2023-05-24T09:34:40;11.18;;;3.15;;
41903;SDS011;27586;51.124;4.182;2023-05-24T09:37:11;9.38;;;3.85;;
41903;SDS011;27586;51.124;4.182;2023-05-24T09:39:42;11.30;;;3.50;;
41903;SDS011;27586;51.124;4.182;2023-05-24T09:42:15;8.90;;;3.83;;
41903;SDS011;27586;51.124;4.182;2023-05-24T09:44:48;8.25;;;3.65;;
41903;SDS011;27586;51.124;4.182;2023-05-24T09:47:33;14.82;;;4.03;;
41903;SDS011;27586;51.124;4.182;2023-05-24T09:50:00;9.88;;;3.38;;
41903;SDS011;27586;51.124;4.182;2023-05-24T09:52:27;11.25;;;3.80;;
41903;SDS011;27586;51.124;4.182;2023-05-24T09:54:53;9.38;;;3.83;;
41903;SDS011;27586;51.124;4.182;2023-05-24T09:57:19;9.52;;;3.47;;
41903;SDS011;27586;51.124;4.182;2023-05-24T09:59:50;8.68;;;3.60;;
41903;SDS011;27586;51.124;4.182;2023-05-24T10:02:16;8.23;;;3.60;;
41903;SDS011;27586;51.124;4.182;2023-05-24T10:04:45;8.13;;;3.30;;
41903;SDS011;27586;51.124;4.182;2023-05-24T10:07:11;9.30;;;3.10;;
41903;SDS011;27586;51.124;4.182;2023-05-24T10:09:37;7.70;;;3.20;;
41903;SDS011;27586;51.124;4.182;2023-05-24T10:12:04;13.50;;;3.70;;
41903;SDS011;27586;51.124;4.182;2023-05-24T10:14:35;7.28;;;3.60;;
41903;SDS011;27586;51.124;4.182;2023-05-24T10:17:02;8.32;;;3.58;;
41903;SDS011;27586;51.124;4.182;2023-05-24T10:19:29;8.48;;;3.28;;
41903;SDS011;27586;51.124;4.182;2023-05-24T10:21:55;8.95;;;3.13;;
41903;SDS011;27586;51.124;4.182;2023-05-24T10:24:23;10.32;;;3.20;;
41903;SDS011;27586;51.124;4.182;2023-05-24T10:26:53;9.80;;;3.38;;
41903;SDS011;27586;51.124;4.182;2023-05-24T10:29:31;7.40;;;3.20;;
41903;SDS011;27586;51.124;4.182;2023-05-24T10:32:09;8.25;;;3.63;;
41903;SDS011;27586;51.124;4.182;2023-05-24T10:34:36;9.48;;;3.33;;
41903;SDS011;27586;51.124;4.182;2023-05-24T10:37:02;6.80;;;3.25;;
41903;SDS011;27586;51.124;4.182;2023-05-24T10:39:28;13.88;;;3.85;;
41903;SDS011;27586;51.124;4.182;2023-05-24T10:41:56;6.95;;;2.78;;
41903;SDS011;27586;51.124;4.182;2023-05-24T10:44:30;11.13;;;3.60;;
41903;SDS011;27586;51.124;4.182;2023-05-24T10:49:35;12.10;;;3.55;;
41903;SDS011;27586;51.124;4.182;2023-05-24T10:52:05;5.15;;;2.33;;
41903;SDS011;27586;51.124;4.182;2023-05-24T10:54:32;8.38;;;2.65;;
41903;SDS011;27586;51.124;4.182;2023-05-24T10:57:00;10.90;;;3.47;;
41903;SDS011;27586;51.124;4.182;2023-05-24T10:59:30;10.25;;;3.30;;
41903;SDS011;27586;51.124;4.182;2023-05-24T11:02:06;7.18;;;2.88;;
41903;SDS011;27586;51.124;4.182;2023-05-24T11:04:40;7.60;;;3.00;;
41903;SDS011;27586;51.124;4.182;2023-05-24T11:07:12;8.05;;;2.97;;
41903;SDS011;27586;51.124;4.182;2023-05-24T11:09:39;10.05;;;3.75;;
41903;SDS011;27586;51.124;4.182;2023-05-24T11:12:13;6.85;;;3.03;;
41903;SDS011;27586;51.124;4.182;2023-05-24T11:14:45;8.65;;;3.42;;
41903;SDS011;27586;51.124;4.182;2023-05-24T11:17:13;11.25;;;3.17;;
41903;SDS011;27586;51.124;4.182;2023-05-24T11:19:45;5.80;;;2.88;;
41903;SDS011;27586;51.124;4.182;2023-05-24T11:22:16;5.85;;;3.20;;
41903;SDS011;27586;51.124;4.182;2023-05-24T11:24:44;6.20;;;3.03;;
41903;SDS011;27586;51.124;4.182;2023-05-24T11:27:10;8.02;;;3.22;;
41903;SDS011;27586;51.124;4.182;2023-05-24T11:29:44;11.15;;;3.65;;
41903;SDS011;27586;51.124;4.182;2023-05-24T11:32:15;9.07;;;3.67;;
41903;SDS011;27586;51.124;4.182;2023-05-24T11:34:41;5.72;;;2.72;;
41903;SDS011;27586;51.124;4.182;2023-05-24T11:37:09;6.57;;;3.08;;
41903;SDS011;27586;51.124;4.182;2023-05-24T11:39:36;7.18;;;2.67;;
41903;SDS011;27586;51.124;4.182;2023-05-24T11:42:03;6.65;;;2.92;;
41903;SDS011;27586;51.124;4.182;2023-05-24T11:44:30;7.88;;;3.50;;
41903;SDS011;27586;51.124;4.182;2023-05-24T11:46:57;7.85;;;3.38;;
41903;SDS011;27586;51.124;4.182;2023-05-24T11:49:24;9.80;;;3.40;;
41903;SDS011;27586;51.124;4.182;2023-05-24T11:51:51;11.25;;;3.40;;
41903;SDS011;27586;51.124;4.182;2023-05-24T11:54:21;7.32;;;3.10;;
41903;SDS011;27586;51.124;4.182;2023-05-24T11:56:54;8.43;;;3.10;;
41903;SDS011;27586;51.124;4.182;2023-05-24T11:59:23;7.22;;;3.38;;
41903;SDS011;27586;51.124;4.182;2023-05-24T12:02:11;8.32;;;3.50;;
41903;SDS011;27586;51.124;4.182;2023-05-24T12:04:36;7.00;;;3.03;;
41903;SDS011;27586;51.124;4.182;2023-05-24T12:07:01;7.05;;;2.88;;
41903;SDS011;27586;51.124;4.182;2023-05-24T12:09:27;8.50;;;3.42;;
41903;SDS011;27586;51.124;4.182;2023-05-24T12:11:53;7.28;;;3.30;;
41903;SDS011;27586;51.124;4.182;2023-05-24T12:14:37;9.30;;;3.20;;
41903;SDS011;27586;51.124;4.182;2023-05-24T12:17:03;7.43;;;3.58;;
41903;SDS011;27586;51.124;4.182;2023-05-24T12:19:30;12.77;;;3.60;;
41903;SDS011;27586;51.124;4.182;2023-05-24T12:21:58;5.80;;;2.88;;
41903;SDS011;27586;51.124;4.182;2023-05-24T12:24:25;6.20;;;3.13;;
41903;SDS011;27586;51.124;4.182;2023-05-24T12:26:56;6.13;;;2.80;;
41903;SDS011;27586;51.124;4.182;2023-05-24T12:29:25;9.07;;;3.70;;
41903;SDS011;27586;51.124;4.182;2023-05-24T12:31:51;7.88;;;3.30;;
41903;SDS011;27586;51.124;4.182;2023-05-24T12:34:17;7.20;;;3.33;;
41903;SDS011;27586;51.124;4.182;2023-05-24T12:36:44;8.45;;;3.50;;
41903;SDS011;27586;51.124;4.182;2023-05-24T12:39:26;7.70;;;3.03;;
41903;SDS011;27586;51.124;4.182;2023-05-24T12:41:58;7.90;;;2.75;;
41903;SDS011;27586;51.124;4.182;2023-05-24T12:44:31;6.28;;;3.22;;
41903;SDS011;27586;51.124;4.182;2023-05-24T12:47:01;6.78;;;2.80;;
41903;SDS011;27586;51.124;4.182;2023-05-24T12:49:28;6.85;;;3.10;;
41903;SDS011;27586;51.124;4.182;2023-05-24T12:51:55;8.80;;;3.58;;
41903;SDS011;27586;51.124;4.182;2023-05-24T12:54:22;5.75;;;2.63;;
41903;SDS011;27586;51.124;4.182;2023-05-24T12:56:49;9.07;;;3.80;;
41903;SDS011;27586;51.124;4.182;2023-05-24T12:59:15;7.13;;;3.20;;
41903;SDS011;27586;51.124;4.182;2023-05-24T13:01:41;7.47;;;3.22;;
41903;SDS011;27586;51.124;4.182;2023-05-24T13:04:07;8.48;;;3.13;;
41903;SDS011;27586;51.124;4.182;2023-05-24T13:06:35;7.05;;;3.05;;
41903;SDS011;27586;51.124;4.182;2023-05-24T13:09:01;14.32;;;4.40;;
41903;SDS011;27586;51.124;4.182;2023-05-24T13:11:27;11.00;;;3.65;;
41903;SDS011;27586;51.124;4.182;2023-05-24T13:13:55;7.90;;;3.38;;
41903;SDS011;27586;51.124;4.182;2023-05-24T13:16:21;8.18;;;3.30;;
41903;SDS011;27586;51.124;4.182;2023-05-24T13:18:47;10.18;;;3.80;;
41903;SDS011;27586;51.124;4.182;2023-05-24T13:21:13;8.18;;;3.45;;
41903;SDS011;27586;51.124;4.182;2023-05-24T13:23:39;9.52;;;3.40;;
41903;SDS011;27586;51.124;4.182;2023-05-24T13:26:04;6.20;;;3.15;;
41903;SDS011;27586;51.124;4.182;2023-05-24T13:28:31;8.23;;;3.63;;
41903;SDS011;27586;51.124;4.182;2023-05-24T13:30:58;8.85;;;3.47;;
41903;SDS011;27586;51.124;4.182;2023-05-24T13:33:23;6.80;;;3.25;;
41903;SDS011;27586;51.124;4.182;2023-05-24T13:35:50;5.95;;;2.85;;
41903;SDS011;27586;51.124;4.182;2023-05-24T13:38:18;6.63;;;2.97;;
41903;SDS011;27586;51.124;4.182;2023-05-24T13:40:44;6.22;;;3.22;;
41903;SDS011;27586;51.124;4.182;2023-05-24T13:43:09;8.48;;;3.28;;
41903;SDS011;27586;51.124;4.182;2023-05-24T13:45:35;9.80;;;3.05;;
41903;SDS011;27586;51.124;4.182;2023-05-24T13:48:01;8.68;;;3.03;;
41903;SDS011;27586;51.124;4.182;2023-05-24T13:50:31;6.95;;;2.75;;
41903;SDS011;27586;51.124;4.182;2023-05-24T13:52:58;8.15;;;3.00;;
41903;SDS011;27586;51.124;4.182;2023-05-24T13:55:31;6.07;;;2.90;;
41903;SDS011;27586;51.124;4.182;2023-05-24T13:57:59;7.30;;;2.50;;
41903;SDS011;27586;51.124;4.182;2023-05-24T14:00:29;7.68;;;2.83;;
41903;SDS011;27586;51.124;4.182;2023-05-24T14:02:55;8.30;;;3.10;;
41903;SDS011;27586;51.124;4.182;2023-05-24T14:05:21;7.75;;;3.30;;
41903;SDS011;27586;51.124;4.182;2023-05-24T14:07:47;5.90;;;2.65;;
41903;SDS011;27586;51.124;4.182;2023-05-24T14:10:13;9.07;;;3.60;;
41903;SDS011;27586;51.124;4.182;2023-05-24T14:12:39;5.68;;;2.63;;
41903;SDS011;27586;51.124;4.182;2023-05-24T14:15:06;7.75;;;3.00;;
41903;SDS011;27586;51.124;4.182;2023-05-24T14:17:32;6.70;;;2.80;;
41903;SDS011;27586;51.124;4.182;2023-05-24T14:19:58;7.93;;;2.92;;
41903;SDS011;27586;51.124;4.182;2023-05-24T14:22:23;7.70;;;2.97;;
41903;SDS011;27586;51.124;4.182;2023-05-24T14:24:50;6.82;;;3.20;;
41903;SDS011;27586;51.124;4.182;2023-05-24T14:27:16;5.32;;;2.72;;
41903;SDS011;27586;51.124;4.182;2023-05-24T14:29:42;6.70;;;2.75;;
41903;SDS011;27586;51.124;4.182;2023-05-24T14:32:07;7.80;;;3.15;;
41903;SDS011;27586;51.124;4.182;2023-05-24T14:34:35;7.50;;;3.10;;
41903;SDS011;27586;51.124;4.182;2023-05-24T14:37:01;4.93;;;2.80;;
41903;SDS011;27586;51.124;4.182;2023-05-24T14:39:27;5.07;;;2.47;;
41903;SDS011;27586;51.124;4.182;2023-05-24T14:41:53;8.55;;;3.03;;
41903;SDS011;27586;51.124;4.182;2023-05-24T14:44:19;6.93;;;2.67;;
41903;SDS011;27586;51.124;4.182;2023-05-24T14:46:45;8.45;;;2.92;;
41903;SDS011;27586;51.124;4.182;2023-05-24T14:49:11;8.15;;;3.22;;
41903;SDS011;27586;51.124;4.182;2023-05-24T14:51:37;6.43;;;2.80;;
41903;SDS011;27586;51.124;4.182;2023-05-24T14:54:02;8.82;;;3.53;;
41903;SDS011;27586;51.124;4.182;2023-05-24T14:56:28;8.70;;;3.50;;
41903;SDS011;27586;51.124;4.182;2023-05-24T14:58:56;6.85;;;2.90;;
41903;SDS011;27586;51.124;4.182;2023-05-24T15:01:26;6.22;;;2.72;;
41903;SDS011;27586;51.124;4.182;2023-05-24T15:03:51;5.30;;;2.92;;
41903;SDS011;27586;51.124;4.182;2023-05-24T15:06:17;5.88;;;2.83;;